Dot, Texas
Current Conditions -  °F | °C
As of 9:55 AM on Friday 24 Oct 2014 (Local Time) from KTPL Reporting Station
Scattered Clouds Scattered Clouds  
Wind Chill: 66°   Ceiling: Unl
Heat Index: 66°   Visibility: 10mi
Dew Point: 54°   Wind: 10mph
Humidity: 64%   Direction: 170°S
Pressure: 30.18"   Gusts: NA
Location:  31.265°N, 97.2164°W
Report Text: KTPL 241455Z AUTO 17009KT 10SM SCT050 19/12 A3018 RMK AO1 52017
Loading
Personal Weather Stations






























Interactive Weather Map
Tropical Storm Tracking
New forecast layout! Learn more

10-Day Weather Forecast

Advertisements
Track Severe Weather on mobile